WMKK/KUL METAR and TAF weather

Enter ICAO airport designator
Station Type Date Time Source
WMKK METAR 2020/01/17 14:00 UTC NOAA

WMKK 171400Z VRB02KT 9999 FEW030 27/24 Q1011 NOSIG


Station Type Date Time Source
WMKK Decoded METAR 2020/01/17 14:00 UTC NOAA

Sepang/KL International Airport, Malaysia (WMKK) 02-44N 101-42E 22M
Jan 17, 2020 - 09:00 AM EST / 2020.01.17 1400 UTC
Wind: Variable at 2 MPH (2 KT):0
Visibility: greater than 7 mile(s):0
Sky conditions: mostly clear
Temperature: 80 F (27 C)
Dew Point: 75 F (24 C)
Relative Humidity: 83%
Pressure (altimeter): 29.85 in. Hg (1011 hPa)
ob: WMKK 171400Z VRB02KT 9999 FEW030 27/24 Q1011 NOSIG
cycle: 14

Station Type Date Time Source
WMKK TAF 2020/01/17 12:11 UTC NOAA

TAF WMKK 171100Z 1712/1818 12005KT 9999 FEW018
BECMG 1720/1722 VRB02KT 8000 FEW010 FEW017CB SCT020

Example: see airport list